createdAt,value
2019-05-25T00:03:36.558Z,4.27
2019-05-25T00:06:20.110Z,4.07
2019-05-25T00:09:09.883Z,3.90
2019-05-25T00:12:00.042Z,3.97
2019-05-25T00:15:08.919Z,3.70
2019-05-25T00:17:58.908Z,4.47
2019-05-25T00:20:48.659Z,3.80
2019-05-25T00:23:38.385Z,3.97
2019-05-25T00:26:20.769Z,3.93
2019-05-25T00:29:10.566Z,4.03
2019-05-25T00:32:15.974Z,4.03
2019-05-25T00:34:58.696Z,3.97
2019-05-25T00:37:48.443Z,4.57
2019-05-25T00:40:30.856Z,4.87
2019-05-25T00:43:20.594Z,4.73
2019-05-25T00:49:06.075Z,4.70
2019-05-25T00:51:36.758Z,4.43
2019-05-25T00:54:28.191Z,4.70
2019-05-25T00:57:10.943Z,4.97
2019-05-25T01:00:00.733Z,5.20
2019-05-25T01:02:50.545Z,4.60
2019-05-25T01:05:40.337Z,5.03
2019-05-25T01:08:22.983Z,4.57
2019-05-25T01:11:12.704Z,4.90
2019-05-25T01:17:05.891Z,5.20
2019-05-25T01:19:48.751Z,4.90
2019-05-25T01:22:38.486Z,5.17
2019-05-25T01:25:28.179Z,5.80
2019-05-25T01:28:10.656Z,5.27
2019-05-25T01:31:00.477Z,5.00
2019-05-25T01:33:50.246Z,5.53
2019-05-25T01:36:40.173Z,5.73
2019-05-25T01:39:29.998Z,5.80
2019-05-25T01:45:28.554Z,5.50
2019-05-25T01:48:11.557Z,5.37
2019-05-25T01:51:01.428Z,5.63
2019-05-25T01:53:51.206Z,5.00
2019-05-25T01:56:40.977Z,4.93
2019-05-25T02:02:23.917Z,5.13
2019-05-25T02:05:14.075Z,5.27
2019-05-25T02:08:03.906Z,4.67
2019-05-25T02:11:07.008Z,5.23
2019-05-25T02:13:49.219Z,5.13
2019-05-25T02:16:38.915Z,5.67
2019-05-25T02:19:21.283Z,5.07
2019-05-25T02:22:10.998Z,5.03
2019-05-25T02:24:52.921Z,5.43
2019-05-25T02:27:42.720Z,4.97
2019-05-25T02:30:26.337Z,4.93
2019-05-25T02:33:16.054Z,4.90
2019-05-25T02:35:58.758Z,4.83
2019-05-25T02:38:48.473Z,4.40
2019-05-25T02:41:30.549Z,5.27
2019-05-25T02:47:21.394Z,5.27
2019-05-25T02:50:11.107Z,4.80
2019-05-25T02:52:54.456Z,5.27
2019-05-25T02:55:44.196Z,5.60
2019-05-25T03:04:21.468Z,4.70
2019-05-25T03:07:11.280Z,5.10
2019-05-25T03:09:53.695Z,4.97
2019-05-25T03:18:52.578Z,4.80
2019-05-25T03:21:35.238Z,5.20
2019-05-25T03:24:25.272Z,4.70
2019-05-25T03:30:37.315Z,4.83
2019-05-25T03:33:27.092Z,4.70
2019-05-25T03:36:16.873Z,5.40
2019-05-25T03:39:08.188Z,5.00
2019-05-25T03:41:57.968Z,5.40
2019-05-25T03:44:47.698Z,5.80
2019-05-25T03:50:40.693Z,5.30
2019-05-25T03:53:22.975Z,5.47
2019-05-25T03:56:12.716Z,5.80
2019-05-25T03:58:55.378Z,5.43
2019-05-25T04:01:45.148Z,4.80
2019-05-25T04:04:34.931Z,4.80
2019-05-25T04:07:17.192Z,5.20
2019-05-25T04:13:21.075Z,5.20
2019-05-25T04:16:10.874Z,5.50
2019-05-25T04:19:00.648Z,5.57
2019-05-25T04:22:09.539Z,5.70
2019-05-25T04:24:59.280Z,5.27
2019-05-25T04:27:48.980Z,5.40
2019-05-25T04:30:31.473Z,5.73
2019-05-25T04:33:21.190Z,5.63
2019-05-25T04:36:10.953Z,5.93
2019-05-25T04:39:00.740Z,5.47
2019-05-25T04:41:50.515Z,5.60
2019-05-25T04:44:40.245Z,5.30
2019-05-25T04:47:30.105Z,5.50
2019-05-25T04:50:19.907Z,5.30
2019-05-25T04:53:09.692Z,5.10
2019-05-25T05:01:55.989Z,4.83
2019-05-25T05:04:45.779Z,5.10
2019-05-25T05:07:35.486Z,4.70
2019-05-25T05:10:17.827Z,4.90
2019-05-25T05:12:48.490Z,4.93
2019-05-25T05:18:27.798Z,6.33
2019-05-25T05:20:58.500Z,5.53
2019-05-25T05:23:48.369Z,5.77
2019-05-25T05:26:30.822Z,5.40
2019-05-25T05:29:39.662Z,5.23
2019-05-25T05:32:29.462Z,4.83
2019-05-25T05:35:19.270Z,5.30
2019-05-25T05:38:09.047Z,5.50
2019-05-25T05:41:18.183Z,5.53
2019-05-25T05:44:08.044Z,5.83
2019-05-25T05:50:12.430Z,6.80
2019-05-25T05:52:43.064Z,7.03
2019-05-25T05:55:33.176Z,7.13
2019-05-25T05:58:15.296Z,9.03
2019-05-25T06:00:58.498Z,8.73
2019-05-25T06:03:48.331Z,8.10
2019-05-25T06:06:38.239Z,8.10
2019-05-25T06:09:28.063Z,6.90
2019-05-25T06:12:36.910Z,7.40
2019-05-25T06:15:26.696Z,8.13
2019-05-25T06:18:16.760Z,8.17
2019-05-25T06:21:06.706Z,7.87
2019-05-25T06:23:56.482Z,7.40
2019-05-25T06:26:46.235Z,8.00
2019-05-25T06:29:35.996Z,7.30
2019-05-25T06:32:27.257Z,7.50
2019-05-25T06:38:00.214Z,6.47
2019-05-25T06:53:18.988Z,6.80
2019-05-25T06:56:03.290Z,6.20
2019-05-25T06:58:45.740Z,6.13
2019-05-25T07:01:35.548Z,6.27
2019-05-25T07:04:25.906Z,6.72
2019-05-25T07:07:16.282Z,6.25
2019-05-25T07:10:06.572Z,6.15
2019-05-25T07:12:56.328Z,6.30
2019-05-25T07:15:46.714Z,6.70
2019-05-25T07:18:29.695Z,6.03
2019-05-25T07:21:00.420Z,6.15
2019-05-25T07:23:50.153Z,6.45
2019-05-25T07:26:33.081Z,6.17
2019-05-25T07:29:41.960Z,6.58
2019-05-25T07:32:31.751Z,7.03
2019-05-25T07:35:21.563Z,6.78
2019-05-25T07:38:11.329Z,6.58
2019-05-25T07:41:02.075Z,6.87
2019-05-25T07:44:04.849Z,7.95
2019-05-25T07:46:47.696Z,6.87
2019-05-25T07:49:37.428Z,7.20
2019-05-25T07:52:20.202Z,7.55
2019-05-25T07:55:10.479Z,7.35
2019-05-25T07:57:53.599Z,7.08
2019-05-25T08:00:43.921Z,7.10
2019-05-25T08:03:26.580Z,7.78
2019-05-25T08:06:16.873Z,7.78
2019-05-25T08:09:00.098Z,7.80
2019-05-25T08:11:50.414Z,7.80
2019-05-25T08:14:32.931Z,7.75
2019-05-25T08:17:23.590Z,7.90
2019-05-25T08:20:06.707Z,7.87
2019-05-25T08:22:57.060Z,7.55
2019-05-25T08:25:47.613Z,8.30
2019-05-25T08:28:37.971Z,7.78
2019-05-25T08:31:28.364Z,7.92
2019-05-25T08:34:18.777Z,7.72
2019-05-25T08:37:28.444Z,8.15
2019-05-25T08:40:12.053Z,7.75
2019-05-25T08:42:43.293Z,7.92
2019-05-25T08:45:33.702Z,8.75
2019-05-25T08:48:17.906Z,7.03
2019-05-25T08:51:01.158Z,6.33
2019-05-25T08:53:51.661Z,6.78
2019-05-25T08:56:41.965Z,6.83
2019-05-25T08:59:25.698Z,6.45
2019-05-25T09:02:16.164Z,6.90
2019-05-25T09:05:06.762Z,7.08
2019-05-25T09:07:57.204Z,7.00
2019-05-25T09:10:47.640Z,7.15
2019-05-25T09:13:38.010Z,6.55
2019-05-25T09:16:28.398Z,6.20
2019-05-25T09:19:18.729Z,5.80
2019-05-25T09:22:03.431Z,5.75
2019-05-25T09:24:53.650Z,6.08
2019-05-25T09:27:36.288Z,6.25
2019-05-25T09:30:26.662Z,6.03
2019-05-25T09:33:36.121Z,6.55
2019-05-25T09:36:26.476Z,6.30
2019-05-25T09:41:54.699Z,5.87
2019-05-25T09:44:45.000Z,6.58
2019-05-25T09:47:28.582Z,6.65
2019-05-25T09:50:18.984Z,5.65
2019-05-25T09:53:01.610Z,6.05
2019-05-25T09:55:52.075Z,5.42
2019-05-25T09:58:34.964Z,6.92
2019-05-25T10:01:25.574Z,6.17
2019-05-25T10:04:15.888Z,6.58
2019-05-25T10:07:06.309Z,5.97
2019-05-25T10:09:56.686Z,5.78
2019-05-25T10:12:47.090Z,6.15
2019-05-25T10:15:50.618Z,6.20
2019-05-25T10:18:33.219Z,6.50
2019-05-25T10:21:23.540Z,5.10
2019-05-25T10:24:06.212Z,6.10
2019-05-25T10:26:56.546Z,7.50
2019-05-25T10:29:46.847Z,7.47
2019-05-25T10:32:31.733Z,7.05
2019-05-25T10:35:41.213Z,8.65
2019-05-25T10:38:31.668Z,8.90
2019-05-25T10:41:22.091Z,8.00
2019-05-25T10:44:11.915Z,8.63
2019-05-25T10:47:01.706Z,9.03
2019-05-25T10:49:51.494Z,9.03
2019-05-25T10:52:41.984Z,9.45
2019-05-25T10:58:29.977Z,9.70
2019-05-25T11:01:19.736Z,9.75
2019-05-25T11:04:02.336Z,10.65
2019-05-25T11:06:52.079Z,10.58
2019-05-25T11:09:36.225Z,10.60
2019-05-25T11:12:26.216Z,10.10
2019-05-25T11:15:14.454Z,10.58
2019-05-25T11:18:04.927Z,10.58
2019-05-25T11:20:47.279Z,9.95
2019-05-25T11:23:37.184Z,10.35
2019-05-25T11:26:19.333Z,10.88
2019-05-25T11:29:09.122Z,11.53
2019-05-25T11:31:56.650Z,10.30
2019-05-25T11:34:43.139Z,10.03
2019-05-25T11:37:25.589Z,10.10
2019-05-25T11:40:16.361Z,10.70
2019-05-25T11:42:47.130Z,10.63
2019-05-25T11:45:36.846Z,10.95
2019-05-25T11:51:22.278Z,11.00
2019-05-25T11:54:12.569Z,10.20
2019-05-25T11:56:54.867Z,9.90
2019-05-25T11:59:38.100Z,10.08
2019-05-25T12:02:21.874Z,9.50
2019-05-25T12:05:32.831Z,11.20
2019-05-25T12:08:23.223Z,9.35
2019-05-25T12:11:32.727Z,9.90
2019-05-25T12:14:23.117Z,9.48
2019-05-25T12:17:13.484Z,9.75
2019-05-25T12:20:04.006Z,10.08
2019-05-25T12:23:13.571Z,9.30
2019-05-25T12:25:56.555Z,8.95
2019-05-25T12:28:46.908Z,9.58
2019-05-25T12:31:37.444Z,8.53
2019-05-25T12:34:20.166Z,9.23
2019-05-25T12:37:22.622Z,9.55
2019-05-25T12:40:05.626Z,9.05
2019-05-25T12:42:55.946Z,9.23
2019-05-25T12:45:42.003Z,10.10
2019-05-25T12:48:30.721Z,9.50
2019-05-25T12:51:13.556Z,9.83
2019-05-25T12:54:03.846Z,9.25
2019-05-25T12:56:46.832Z,8.85
2019-05-25T12:59:37.165Z,8.98
2019-05-25T13:02:23.716Z,9.70
2019-05-25T13:05:34.907Z,4.87
2019-05-25T13:08:19.014Z,2.70
2019-05-25T13:11:09.673Z,3.35
2019-05-25T13:13:53.224Z,2.87
2019-05-25T13:16:42.978Z,2.90
2019-05-25T13:19:25.280Z,2.77
2019-05-25T13:22:14.991Z,3.00
2019-05-25T13:24:57.315Z,2.57
2019-05-25T13:27:47.109Z,2.40
2019-05-25T13:30:29.468Z,2.47
2019-05-25T13:33:19.780Z,2.30
2019-05-25T13:36:04.079Z,2.30
2019-05-25T13:38:53.803Z,2.00
2019-05-25T13:41:44.106Z,2.27
2019-05-25T13:44:26.588Z,2.13
2019-05-25T13:47:16.987Z,2.20
2019-05-25T13:50:19.466Z,2.50
2019-05-25T13:53:02.124Z,2.50
2019-05-25T13:56:10.983Z,2.85
2019-05-25T14:01:42.040Z,3.03
2019-05-25T14:04:32.345Z,3.10
2019-05-25T14:07:15.140Z,2.92
2019-05-25T14:10:05.823Z,3.00
2019-05-25T14:13:15.183Z,2.87
2019-05-25T14:16:06.789Z,3.20
2019-05-25T14:18:48.745Z,2.70
2019-05-25T14:21:39.199Z,2.80
2019-05-25T14:24:29.481Z,3.62
2019-05-25T14:27:19.790Z,3.72
2019-05-25T14:30:02.054Z,3.80
2019-05-25T14:32:51.759Z,3.35
2019-05-25T14:35:41.589Z,4.13
2019-05-25T14:38:25.379Z,4.17
2019-05-25T14:41:15.143Z,3.87
2019-05-25T14:44:04.991Z,4.10
2019-05-25T14:46:48.463Z,4.73
2019-05-25T14:49:38.261Z,5.30
2019-05-25T14:52:28.079Z,5.03
2019-05-25T14:55:18.083Z,6.27
2019-05-25T14:58:07.801Z,4.20
2019-05-25T15:00:57.537Z,4.30
2019-05-25T15:03:47.305Z,3.80
2019-05-25T15:06:29.305Z,3.63
2019-05-25T15:09:19.043Z,3.50
2019-05-25T15:12:01.600Z,3.60
2019-05-25T15:14:51.420Z,3.73
2019-05-25T15:17:43.166Z,4.73
2019-05-25T15:20:26.481Z,3.90
2019-05-25T15:23:16.282Z,3.60
2019-05-25T15:26:06.111Z,4.73
2019-05-25T15:28:56.871Z,4.87
2019-05-25T15:31:46.743Z,5.20
2019-05-25T15:34:36.498Z,4.93
2019-05-25T15:37:26.282Z,5.70
2019-05-25T15:40:16.133Z,5.10
2019-05-25T15:43:06.108Z,4.60
2019-05-25T15:46:15.005Z,4.70
2019-05-25T15:48:57.769Z,4.70
2019-05-25T15:51:47.544Z,4.20
2019-05-25T15:54:29.810Z,4.80
2019-05-25T15:57:19.985Z,3.80
2019-05-25T16:00:02.924Z,3.67
2019-05-25T16:05:54.928Z,5.15
2019-05-25T16:11:32.742Z,5.90
2019-05-25T16:14:23.135Z,5.47
2019-05-25T16:17:12.956Z,5.42
2019-05-25T16:20:03.362Z,5.50
2019-05-25T16:22:53.756Z,5.83
2019-05-25T16:25:44.088Z,5.62
2019-05-25T16:28:33.924Z,5.83
2019-05-25T16:31:23.638Z,5.00
2019-05-25T16:34:13.933Z,3.70
2019-05-25T16:37:04.416Z,4.50
2019-05-25T16:39:47.663Z,4.22
2019-05-25T16:42:37.394Z,3.83
2019-05-25T16:45:21.162Z,4.30
2019-05-25T16:48:11.478Z,3.75
2019-05-25T16:50:54.913Z,3.58
2019-05-25T16:53:45.187Z,4.08
2019-05-25T16:56:35.486Z,4.60
2019-05-25T16:59:18.512Z,5.25
2019-05-25T17:02:08.806Z,5.03
2019-05-25T17:04:53.368Z,4.50
2019-05-25T17:07:36.136Z,5.25
2019-05-25T17:10:25.889Z,5.50
2019-05-25T17:13:09.456Z,5.78
2019-05-25T17:15:59.250Z,5.17
2019-05-25T17:18:49.790Z,4.87
2019-05-25T17:21:40.158Z,4.95
2019-05-25T17:24:29.986Z,4.50
2019-05-25T17:27:20.402Z,4.17
2019-05-25T17:30:10.677Z,4.83
2019-05-25T17:33:00.428Z,5.90
2019-05-25T17:35:50.149Z,5.17
2019-05-25T17:38:39.874Z,5.50
2019-05-25T17:41:22.244Z,6.80
2019-05-25T17:44:11.969Z,5.50
2019-05-25T17:46:54.491Z,5.27
2019-05-25T17:49:44.220Z,5.47
2019-05-25T17:52:26.517Z,6.10
2019-05-25T17:55:16.219Z,5.57
2019-05-25T17:57:46.909Z,5.80
2019-05-25T18:00:55.672Z,5.70
2019-05-25T18:03:38.081Z,6.50
2019-05-25T18:06:27.798Z,6.40
2019-05-25T18:09:09.981Z,6.83
2019-05-25T18:11:59.734Z,6.50
2019-05-25T18:14:42.930Z,6.53
2019-05-25T18:20:37.851Z,7.30
2019-05-25T18:23:19.903Z,6.83
2019-05-25T18:26:09.654Z,7.00
2019-05-25T18:28:51.723Z,7.33
2019-05-25T18:31:41.507Z,7.67
2019-05-25T18:34:31.254Z,7.50
2019-05-25T18:37:20.991Z,8.10
2019-05-25T18:40:03.439Z,7.67
2019-05-25T18:42:53.330Z,8.10
2019-05-25T18:45:43.052Z,8.40
2019-05-25T18:48:25.634Z,9.43
2019-05-25T18:51:15.727Z,7.97
2019-05-25T18:54:05.740Z,8.73
2019-05-25T18:56:55.579Z,8.43
2019-05-25T18:59:45.436Z,8.57
2019-05-25T19:02:35.232Z,9.33
2019-05-25T19:05:25.103Z,9.77
2019-05-25T19:08:15.022Z,10.30
2019-05-25T19:11:04.841Z,9.37
2019-05-25T19:13:55.150Z,8.93
2019-05-25T19:16:44.998Z,9.30
2019-05-25T19:19:34.820Z,10.03
2019-05-25T19:22:24.587Z,9.30
2019-05-25T19:25:14.731Z,9.30
2019-05-25T19:30:48.151Z,9.70
2019-05-25T19:33:37.908Z,10.33
2019-05-25T19:36:20.544Z,10.40
2019-05-25T19:39:10.292Z,10.27
2019-05-25T19:41:52.885Z,9.67
2019-05-25T19:44:42.630Z,9.50
2019-05-25T19:47:25.300Z,11.03
2019-05-25T19:50:15.316Z,10.53
2019-05-25T19:52:58.909Z,10.77
2019-05-25T19:55:29.550Z,10.83
2019-05-25T19:58:19.251Z,10.97
2019-05-25T20:01:03.392Z,11.13
2019-05-25T20:03:57.197Z,14.23
2019-05-25T20:06:37.284Z,15.07
2019-05-25T20:09:27.144Z,14.70
2019-05-25T20:12:16.923Z,14.73
2019-05-25T20:18:03.792Z,14.10
2019-05-25T20:20:53.553Z,12.90
2019-05-25T20:26:39.033Z,11.70
2019-05-25T20:29:09.904Z,11.83
2019-05-25T20:31:40.541Z,12.40
2019-05-25T20:34:30.288Z,12.37
2019-05-25T20:37:14.649Z,12.60
2019-05-25T20:39:58.810Z,12.97
2019-05-25T20:54:42.864Z,13.60
2019-05-25T20:57:32.808Z,13.90
2019-05-25T21:00:24.272Z,14.43
2019-05-25T21:03:07.610Z,14.83
2019-05-25T21:05:57.417Z,15.30
2019-05-25T21:08:47.241Z,14.67
2019-05-25T21:11:37.447Z,15.70
2019-05-25T21:14:27.174Z,16.27
2019-05-25T21:17:16.978Z,15.67
2019-05-25T21:20:06.821Z,15.20
2019-05-25T21:23:09.361Z,17.37
2019-05-25T21:25:51.746Z,17.10
2019-05-25T21:28:41.473Z,16.47
2019-05-25T21:31:24.084Z,16.93
2019-05-25T21:34:14.293Z,17.43
2019-05-25T21:36:56.662Z,16.67
2019-05-25T21:39:46.353Z,17.70
2019-05-25T21:42:29.013Z,16.80
2019-05-25T21:45:18.859Z,15.50
2019-05-25T21:47:49.672Z,17.67
2019-05-25T21:50:58.510Z,16.23
2019-05-25T21:53:41.501Z,17.07
2019-05-25T21:56:31.205Z,18.27
2019-05-25T21:59:13.529Z,20.67
2019-05-25T22:02:03.303Z,19.60
2019-05-25T22:04:48.669Z,18.47
2019-05-25T22:10:39.485Z,19.13
2019-05-25T22:13:29.205Z,19.37
2019-05-25T22:16:11.814Z,19.63
2019-05-25T22:19:01.550Z,22.63
2019-05-25T22:21:46.045Z,22.00
2019-05-25T22:24:35.581Z,22.00
2019-05-25T22:27:18.361Z,20.80
2019-05-25T22:30:08.137Z,19.03
2019-05-25T22:32:50.128Z,18.23
2019-05-25T22:35:39.865Z,16.33
2019-05-25T22:41:13.815Z,16.30
2019-05-25T22:43:44.596Z,17.00
2019-05-25T22:46:34.299Z,17.17
2019-05-25T22:49:18.331Z,17.27
2019-05-25T22:52:02.210Z,16.87
2019-05-25T22:54:45.131Z,16.30
2019-05-25T22:57:34.874Z,16.47
2019-05-25T23:00:19.498Z,17.20
2019-05-25T23:03:03.811Z,15.70
2019-05-25T23:05:53.666Z,15.00
2019-05-25T23:08:43.570Z,14.63
2019-05-25T23:11:33.348Z,14.23
2019-05-25T23:14:23.170Z,14.07
2019-05-25T23:17:13.013Z,13.97
2019-05-25T23:20:02.816Z,14.23
2019-05-25T23:22:52.696Z,14.80
2019-05-25T23:28:46.173Z,14.83
2019-05-25T23:31:28.919Z,15.33
2019-05-25T23:34:18.654Z,15.97
2019-05-25T23:37:14.240Z,15.63
2019-05-25T23:39:52.151Z,16.03
2019-05-25T23:45:45.533Z,15.77
2019-05-25T23:48:28.024Z,15.40
2019-05-25T23:54:23.443Z,14.90
2019-05-25T23:57:06.289Z,14.43
2019-05-25T23:59:57.017Z,12.97
